Aérodrome :
LOGIN :

S'inscrire | Disclaimer

   EN    FR    IT 

 










Légende :    VFR   VFR Marginal   IFR   IFR Intensif   IFR Très Intensif
Visi : 
Plafond : 
>= 8 km
>= 3000ft
5 à 8 km
1000 à 3000 ft
1500m à 5 km
500 à 1000 ft
800 à 1500m
200 à 500 ft
< 800m
< 200 ft
Symboles :   Orages  Brouillard  Fortes neiges  Fortes précipitations  Vent > 20 kt
SIGMETs :   Divers  Orages  Givrage  Turbulence  Onde Orograph.  Cendres Volcan.






- Altitude de l'aérodrome : 0 ft


ETEB - Ansbach Army Heliport

DERNIER METAR :
  • 221356Z AUTO 28009KT 8000 -DZ BR OVC003 01/01 A3041 RMK AO2 DZE00RAB00E31DZB31 SLP337 P0001 T00130012 FZRANO $

METARs EXPIRÉS :
  • 221256Z AUTO 28009KT 8000 -DZ BR OVC004 01/01 A3041 RMK AO2 UPB08E21DZB51 SLP337 P0000 T00120011 FZRANO $
  • 221251Z AUTO 28010KT 9000 -DZ BR OVC004 01/01 A3041 RMK AO2 UPB08E21DZB51 SLP337 FZRANO $
  • 221221Z AUTO 27008KT 8000 BR OVC004 01/01 A3041 RMK AO2 UPB08 SLP337 FZRANO $
  • 221208Z AUTO 26010KT 6000 -UP BR OVC004 01/01 A3041 RMK AO2 UPB08 SLP337 FZRANO $
  • 221156Z AUTO 26010KT 9999 OVC004 01/01 A3041 RMK AO2 DZE40 SLP337 P0000 60000 70001 T00100009 10010 20004 50006 FZRANO $

TAF TAF ETEB
Valide du 21 à 15h jusqu'au 22 à 21h UTC


211500Z 2115/2221 25010G15KT 5000 -SHSN BR FEW006 SCT010 OVC015 640156 QNH3038INS
BECMG 2121/2122 28012G20KT 4000 -RASN BR OVC010 620107 QNH3033INS
TEMPO 2123/2206 0800 SN BKN006 650067
BECMG 2211/2212 28010KT 8000 BR OVC006 QNH3040INS
BECMG 2214/2215 28009KT 4000 BR OVC004 QNH3042INS
BECMG 2220/2221 27006KT 2000 BR OVC004 QNH3047INS TX02/2215Z TNM01/2203Z LAST NO AMDS AFT 2121 NEXT 2407



MET'MAP, la Météo Aéronautique d'un coup d'oeil ! - Copyright ORBIFLY Décembre 2007 - Disclaimer

ORBIFLY MET'MAP TEAM :

Programmation & Développement : Alexandra Zaïnal
Sur une idée originale de : Baudouin d'Aumeries
Assistance à la programmation : Marc-Olivier Méhu
Soutien technique & logistique : Manuel Goepfert

Contact : metmap@orbifly.com




SOURCES & CREDITS :

   NOAA